createdAt,value
2023-02-17T00:01:12.456Z,8.20
2023-02-17T00:02:45.172Z,8.20
2023-02-17T00:04:17.873Z,8.20
2023-02-17T00:05:51.075Z,8.20
2023-02-17T00:07:23.883Z,8.20
2023-02-17T00:08:59.389Z,8.20
2023-02-17T00:10:32.147Z,8.20
2023-02-17T00:12:05.311Z,8.20
2023-02-17T00:13:38.498Z,8.30
2023-02-17T00:15:11.445Z,8.20
2023-02-17T00:16:44.552Z,8.20
2023-02-17T00:18:17.243Z,8.20
2023-02-17T00:19:50.054Z,8.20
2023-02-17T00:21:25.847Z,8.20
2023-02-17T00:22:58.617Z,8.20
2023-02-17T00:24:33.892Z,8.20
2023-02-17T00:26:07.289Z,8.20
2023-02-17T00:27:40.140Z,8.20
2023-02-17T00:29:12.898Z,8.30
2023-02-17T00:30:45.588Z,8.20
2023-02-17T00:32:18.321Z,8.20
2023-02-17T00:33:51.015Z,8.30
2023-02-17T00:35:23.946Z,8.30
2023-02-17T00:36:56.799Z,8.30
2023-02-17T00:38:30.371Z,8.30
2023-02-17T00:40:04.666Z,8.30
2023-02-17T00:41:37.443Z,8.40
2023-02-17T00:43:10.124Z,8.40
2023-02-17T00:44:42.818Z,8.40
2023-02-17T00:46:16.078Z,8.40
2023-02-17T00:47:48.817Z,8.40
2023-02-17T00:49:22.983Z,8.40
2023-02-17T00:50:55.687Z,8.40
2023-02-17T00:52:28.483Z,8.40
2023-02-17T00:54:00.279Z,8.40
2023-02-17T00:55:34.469Z,8.40
2023-02-17T00:57:07.366Z,8.40
2023-02-17T00:58:41.358Z,8.40
2023-02-17T01:00:15.267Z,8.40
2023-02-17T01:01:47.245Z,8.40
2023-02-17T01:03:20.353Z,8.50
2023-02-17T01:04:53.325Z,8.50
2023-02-17T01:06:27.926Z,8.50
2023-02-17T01:07:59.731Z,8.50
2023-02-17T01:09:32.440Z,8.50
2023-02-17T01:11:06.756Z,8.50
2023-02-17T01:12:38.618Z,8.50
2023-02-17T01:14:14.149Z,8.50
2023-02-17T01:15:49.887Z,8.50
2023-02-17T01:17:22.615Z,8.60
2023-02-17T01:18:54.583Z,8.60
2023-02-17T01:20:27.528Z,8.60
2023-02-17T01:22:00.295Z,8.60
2023-02-17T01:23:32.970Z,8.60
2023-02-17T01:25:06.226Z,8.60
2023-02-17T01:26:41.359Z,8.60
2023-02-17T01:28:16.763Z,8.60
2023-02-17T01:29:49.553Z,8.60
2023-02-17T01:31:23.671Z,8.60
2023-02-17T01:32:56.425Z,8.60
2023-02-17T01:34:28.165Z,8.60
2023-02-17T01:36:03.184Z,8.60
2023-02-17T01:37:36.293Z,8.60
2023-02-17T01:39:09.023Z,8.60
2023-02-17T01:40:47.716Z,8.60
2023-02-17T01:42:21.873Z,8.60
2023-02-17T01:44:11.309Z,8.60
2023-02-17T01:45:50.119Z,8.60
2023-02-17T01:47:21.845Z,8.70
2023-02-17T01:48:54.620Z,8.70
2023-02-17T01:50:32.756Z,8.70
2023-02-17T01:52:10.602Z,8.70
2023-02-17T01:53:45.709Z,8.70
2023-02-17T01:55:21.406Z,8.70
2023-02-17T01:56:56.523Z,8.70
2023-02-17T01:58:32.237Z,8.80
2023-02-17T02:00:05.607Z,8.70
2023-02-17T02:01:39.512Z,8.80
2023-02-17T02:03:14.992Z,8.80
2023-02-17T02:04:52.235Z,8.80
2023-02-17T02:06:28.012Z,8.80
2023-02-17T02:08:00.743Z,8.80
2023-02-17T02:09:37.994Z,8.80
2023-02-17T02:11:10.831Z,8.80
2023-02-17T02:12:43.240Z,8.90
2023-02-17T02:14:19.349Z,8.90
2023-02-17T02:15:58.225Z,8.90
2023-02-17T02:17:40.375Z,8.90
2023-02-17T02:19:51.797Z,8.90
2023-02-17T02:21:53.217Z,9.00
2023-02-17T02:24:09.570Z,9.00
2023-02-17T02:26:10.402Z,9.00
2023-02-17T02:27:51.495Z,9.00
2023-02-17T02:30:08.169Z,9.00
2023-02-17T02:31:46.947Z,9.00
2023-02-17T02:33:28.370Z,9.00
2023-02-17T02:35:06.560Z,9.00
2023-02-17T02:36:44.352Z,9.00
2023-02-17T02:38:21.505Z,9.00
2023-02-17T02:39:57.391Z,9.10
2023-02-17T02:41:33.534Z,9.10
2023-02-17T02:43:05.841Z,9.10
2023-02-17T02:44:38.549Z,9.10
2023-02-17T02:46:11.490Z,9.10
2023-02-17T02:47:49.845Z,9.10
2023-02-17T02:49:24.090Z,9.10
2023-02-17T02:51:05.678Z,9.10
2023-02-17T02:52:49.179Z,9.10
2023-02-17T02:54:42.353Z,9.20
2023-02-17T02:56:22.682Z,9.20
2023-02-17T02:58:04.553Z,9.10
2023-02-17T02:59:47.271Z,9.20
2023-02-17T03:01:31.177Z,9.20
2023-02-17T03:03:11.623Z,9.20
2023-02-17T03:04:52.474Z,9.20
2023-02-17T03:06:32.156Z,9.20
2023-02-17T03:08:10.515Z,9.20
2023-02-17T03:09:43.275Z,9.20
2023-02-17T03:11:32.060Z,9.20
2023-02-17T03:13:05.142Z,9.20
2023-02-17T03:14:39.296Z,9.30
2023-02-17T03:16:14.416Z,9.30
2023-02-17T03:17:47.131Z,9.30
2023-02-17T03:19:21.953Z,9.30
2023-02-17T03:21:01.556Z,9.30
2023-02-17T03:22:37.882Z,9.30
2023-02-17T03:24:11.194Z,9.30
2023-02-17T03:25:45.015Z,9.30
2023-02-17T03:27:16.778Z,9.30
2023-02-17T03:28:49.519Z,9.30
2023-02-17T03:30:22.480Z,9.30
2023-02-17T03:31:54.538Z,9.30
2023-02-17T03:33:27.472Z,9.30
2023-02-17T03:35:00.489Z,9.30
2023-02-17T03:36:34.633Z,9.40
2023-02-17T03:38:07.328Z,9.40
2023-02-17T03:39:40.035Z,9.30
2023-02-17T03:41:11.877Z,9.40
2023-02-17T03:42:44.620Z,9.30
2023-02-17T03:44:17.324Z,9.40
2023-02-17T03:45:50.036Z,9.40
2023-02-17T03:47:22.788Z,9.40
2023-02-17T03:48:54.932Z,9.40
2023-02-17T03:50:27.661Z,9.40
2023-02-17T03:52:01.678Z,9.40
2023-02-17T03:53:34.359Z,9.40
2023-02-17T03:55:07.544Z,9.40
2023-02-17T03:56:39.286Z,9.40
2023-02-17T03:58:12.030Z,9.40
2023-02-17T03:59:44.759Z,9.40
2023-02-17T04:01:17.535Z,9.50
2023-02-17T04:02:50.256Z,9.50
2023-02-17T04:04:22.109Z,9.50
2023-02-17T04:05:55.393Z,9.40
2023-02-17T04:07:29.535Z,9.40
2023-02-17T04:09:02.272Z,9.50
2023-02-17T04:10:34.955Z,9.40
2023-02-17T04:12:07.720Z,9.50
2023-02-17T04:13:41.022Z,9.50
2023-02-17T04:15:13.886Z,9.50
2023-02-17T04:16:46.567Z,9.50
2023-02-17T04:18:18.686Z,9.50
2023-02-17T04:19:51.378Z,9.50
2023-02-17T04:21:24.090Z,9.50
2023-02-17T04:22:57.158Z,9.50
2023-02-17T04:24:30.122Z,9.50
2023-02-17T04:26:03.174Z,9.50
2023-02-17T04:27:35.006Z,9.50
2023-02-17T04:29:07.785Z,9.50
2023-02-17T04:30:40.547Z,9.60
2023-02-17T04:32:13.266Z,9.50
2023-02-17T04:33:45.964Z,9.50
2023-02-17T04:35:17.885Z,9.50
2023-02-17T04:36:50.605Z,9.50
2023-02-17T04:38:24.606Z,9.60
2023-02-17T04:39:57.267Z,9.60
2023-02-17T04:41:29.969Z,9.60
2023-02-17T04:43:01.731Z,9.60
2023-02-17T04:44:34.604Z,9.60
2023-02-17T04:46:07.658Z,9.60
2023-02-17T04:47:39.675Z,9.60
2023-02-17T04:49:12.407Z,9.60
2023-02-17T04:50:45.429Z,9.60
2023-02-17T04:52:18.141Z,9.60
2023-02-17T04:53:52.173Z,9.60
2023-02-17T04:55:24.884Z,9.60
2023-02-17T04:56:57.584Z,9.60
2023-02-17T04:58:30.281Z,9.60
2023-02-17T05:00:03.070Z,9.60
2023-02-17T05:01:34.865Z,9.60
2023-02-17T05:03:07.626Z,9.60
2023-02-17T05:04:40.366Z,9.60
2023-02-17T05:06:13.111Z,9.60
2023-02-17T05:07:46.742Z,9.60
2023-02-17T05:09:20.875Z,9.70
2023-02-17T05:10:54.148Z,9.70
2023-02-17T05:12:25.871Z,9.70
2023-02-17T05:13:58.708Z,9.70
2023-02-17T05:15:33.769Z,9.70
2023-02-17T05:17:07.520Z,9.70
2023-02-17T05:18:40.319Z,9.70
2023-02-17T05:20:13.318Z,9.70
2023-02-17T05:21:46.028Z,9.70
2023-02-17T05:23:18.808Z,9.70
2023-02-17T05:24:52.910Z,9.70
2023-02-17T05:26:25.810Z,9.80
2023-02-17T05:27:58.577Z,9.70
2023-02-17T05:29:31.259Z,9.80
2023-02-17T05:31:04.600Z,9.70
2023-02-17T05:32:37.368Z,9.80
2023-02-17T05:34:10.121Z,9.80
2023-02-17T05:35:42.811Z,9.80
2023-02-17T05:37:14.520Z,9.70
2023-02-17T05:38:49.752Z,9.70
2023-02-17T05:40:23.819Z,9.80
2023-02-17T05:41:56.799Z,9.80
2023-02-17T05:43:29.828Z,9.80
2023-02-17T05:45:02.530Z,9.80
2023-02-17T05:46:35.309Z,9.80
2023-02-17T05:48:08.032Z,9.80
2023-02-17T05:49:39.780Z,9.80
2023-02-17T05:51:13.650Z,9.80
2023-02-17T05:52:46.365Z,9.80
2023-02-17T05:54:19.050Z,9.80
2023-02-17T05:55:53.101Z,9.90
2023-02-17T05:57:25.793Z,9.80
2023-02-17T05:58:58.820Z,9.90
2023-02-17T06:00:31.677Z,9.90
2023-02-17T06:02:04.483Z,9.90
2023-02-17T06:03:37.210Z,9.90
2023-02-17T06:05:10.150Z,9.90
2023-02-17T06:06:42.856Z,9.90
2023-02-17T06:08:15.562Z,9.90
2023-02-17T06:09:48.241Z,9.90
2023-02-17T06:11:22.480Z,9.90
2023-02-17T06:12:55.175Z,9.90
2023-02-17T06:14:27.993Z,9.90
2023-02-17T06:16:00.692Z,9.80
2023-02-17T06:17:33.415Z,9.90
2023-02-17T06:19:06.131Z,9.90
2023-02-17T06:20:38.944Z,9.90
2023-02-17T06:22:11.749Z,9.90
2023-02-17T06:23:44.430Z,9.90
2023-02-17T06:25:17.362Z,9.90
2023-02-17T06:26:51.400Z,9.90
2023-02-17T06:28:24.124Z,9.90
2023-02-17T06:29:56.955Z,9.90
2023-02-17T06:31:29.979Z,9.90
2023-02-17T06:33:02.737Z,9.90
2023-02-17T06:34:35.430Z,9.90
2023-02-17T06:36:09.152Z,10.00
2023-02-17T06:37:41.889Z,10.00
2023-02-17T06:39:14.619Z,10.00
2023-02-17T06:40:47.807Z,10.00
2023-02-17T06:42:21.960Z,10.00
2023-02-17T06:43:54.658Z,10.00
2023-02-17T06:45:27.403Z,10.00
2023-02-17T06:47:00.216Z,10.00
2023-02-17T06:48:33.806Z,10.00
2023-02-17T06:50:07.943Z,10.10
2023-02-17T06:51:40.730Z,10.00
2023-02-17T06:53:13.410Z,10.00
2023-02-17T06:54:47.213Z,10.00
2023-02-17T06:56:21.198Z,10.00
2023-02-17T06:57:55.461Z,10.00
2023-02-17T06:59:28.240Z,10.00
2023-02-17T07:01:01.106Z,10.00
2023-02-17T07:02:34.212Z,10.00
2023-02-17T07:04:07.093Z,10.00
2023-02-17T07:05:40.191Z,10.00
2023-02-17T07:07:14.129Z,10.00
2023-02-17T07:08:47.278Z,10.10
2023-02-17T07:10:20.435Z,10.10
2023-02-17T07:11:53.134Z,10.00
2023-02-17T07:13:27.198Z,10.10
2023-02-17T07:15:00.014Z,10.10
2023-02-17T07:16:32.762Z,10.10
2023-02-17T07:18:05.762Z,10.10
2023-02-17T07:19:38.527Z,10.10
2023-02-17T07:21:11.434Z,10.10
2023-02-17T07:22:44.158Z,10.10
2023-02-17T07:24:16.861Z,10.10
2023-02-17T07:25:49.578Z,10.10
2023-02-17T07:27:22.305Z,10.10
2023-02-17T07:28:56.348Z,10.10
2023-02-17T07:30:29.203Z,10.20
2023-02-17T07:32:02.209Z,10.20
2023-02-17T07:33:35.073Z,10.10
2023-02-17T07:35:08.013Z,10.20
2023-02-17T07:36:40.727Z,10.20
2023-02-17T07:38:13.978Z,10.20
2023-02-17T07:39:46.754Z,10.20
2023-02-17T07:41:21.408Z,10.20
2023-02-17T07:42:54.217Z,10.20
2023-02-17T07:44:28.449Z,10.20
2023-02-17T07:46:01.289Z,10.30
2023-02-17T07:47:34.385Z,10.30
2023-02-17T07:49:07.120Z,10.30
2023-02-17T07:50:39.797Z,10.30
2023-02-17T07:52:12.485Z,10.30
2023-02-17T07:53:45.185Z,10.40
2023-02-17T07:55:18.136Z,10.30
2023-02-17T07:56:50.945Z,10.30
2023-02-17T07:58:23.647Z,10.40
2023-02-17T07:59:57.750Z,10.40
2023-02-17T08:01:30.523Z,10.40
2023-02-17T08:03:03.213Z,10.40
2023-02-17T08:04:35.995Z,10.40
2023-02-17T08:06:11.049Z,10.40
2023-02-17T08:07:43.768Z,10.40
2023-02-17T08:09:33.852Z,10.40
2023-02-17T08:11:24.304Z,10.50
2023-02-17T08:13:14.689Z,10.50
2023-02-17T08:14:47.402Z,10.50
2023-02-17T08:16:21.438Z,10.50
2023-02-17T08:17:54.245Z,10.50
2023-02-17T08:19:36.610Z,10.50
2023-02-17T08:21:15.686Z,10.60
2023-02-17T08:22:48.381Z,10.60
2023-02-17T08:24:21.373Z,10.60
2023-02-17T08:25:54.112Z,10.60
2023-02-17T08:27:26.987Z,10.60
2023-02-17T08:28:59.695Z,10.60
2023-02-17T08:30:33.093Z,10.60
2023-02-17T08:32:07.324Z,10.60
2023-02-17T08:33:40.117Z,10.60
2023-02-17T08:35:12.830Z,10.60
2023-02-17T08:36:45.504Z,10.70
2023-02-17T08:38:18.210Z,10.60
2023-02-17T08:39:51.250Z,10.70
2023-02-17T08:41:26.379Z,10.70
2023-02-17T08:42:59.959Z,10.70
2023-02-17T08:44:36.229Z,10.70
2023-02-17T08:46:09.887Z,10.70
2023-02-17T08:47:44.203Z,10.70
2023-02-17T08:49:18.520Z,10.70
2023-02-17T08:50:51.245Z,10.70
2023-02-17T08:52:23.964Z,10.70
2023-02-17T08:53:58.352Z,10.70
2023-02-17T08:55:43.940Z,10.70
2023-02-17T08:57:21.489Z,10.80
2023-02-17T08:58:54.821Z,10.80
2023-02-17T09:00:27.851Z,10.80
2023-02-17T09:02:00.566Z,10.80
2023-02-17T09:03:37.628Z,10.80
2023-02-17T09:05:11.897Z,10.80
2023-02-17T09:06:48.275Z,10.80
2023-02-17T09:08:21.059Z,10.80
2023-02-17T09:09:53.779Z,10.80
2023-02-17T09:11:26.477Z,10.80
2023-02-17T09:12:59.222Z,10.80
2023-02-17T09:14:32.042Z,10.80
2023-02-17T09:16:05.849Z,10.80
2023-02-17T09:17:40.788Z,10.80
2023-02-17T09:19:14.859Z,10.90
2023-02-17T09:20:47.630Z,10.80
2023-02-17T09:22:31.443Z,10.90
2023-02-17T09:24:05.428Z,10.90
2023-02-17T09:25:38.132Z,10.90
2023-02-17T09:27:11.047Z,10.90
2023-02-17T09:28:44.575Z,10.90
2023-02-17T09:30:17.463Z,10.90
2023-02-17T09:31:50.329Z,10.90
2023-02-17T09:33:23.125Z,10.90
2023-02-17T09:34:57.183Z,10.90
2023-02-17T09:36:32.655Z,11.00
2023-02-17T09:38:05.375Z,11.00
2023-02-17T09:39:38.072Z,10.90
2023-02-17T09:41:18.476Z,11.00
2023-02-17T09:42:51.416Z,10.90
2023-02-17T09:44:26.634Z,11.00
2023-02-17T09:46:07.514Z,11.00
2023-02-17T09:47:45.861Z,11.00
2023-02-17T09:49:25.737Z,11.00
2023-02-17T09:51:02.645Z,11.00
2023-02-17T09:52:42.890Z,11.00
2023-02-17T09:54:20.018Z,11.00
2023-02-17T09:55:55.533Z,11.00
2023-02-17T09:57:31.966Z,11.00
2023-02-17T09:59:11.934Z,11.00
2023-02-17T10:00:48.406Z,11.10
2023-02-17T10:02:27.856Z,11.10
2023-02-17T10:04:07.087Z,11.10
2023-02-17T10:05:46.207Z,11.10
2023-02-17T10:07:27.636Z,11.20
2023-02-17T10:09:03.818Z,11.20
2023-02-17T10:10:42.959Z,11.20
2023-02-17T10:12:19.952Z,11.20
2023-02-17T10:13:54.841Z,11.20
2023-02-17T10:15:31.457Z,11.30
2023-02-17T10:17:07.474Z,11.30
2023-02-17T10:18:45.194Z,11.40
2023-02-17T10:20:23.352Z,11.30
2023-02-17T10:22:03.592Z,11.40
2023-02-17T10:23:37.607Z,11.40
2023-02-17T10:25:16.873Z,11.40
2023-02-17T10:27:10.160Z,11.40
2023-02-17T10:28:51.929Z,11.50
2023-02-17T10:30:33.857Z,11.50
2023-02-17T10:32:22.209Z,11.50
2023-02-17T10:34:03.303Z,11.50
2023-02-17T10:35:47.442Z,11.50
2023-02-17T10:37:28.909Z,11.50
2023-02-17T10:39:09.517Z,11.50
2023-02-17T10:40:44.916Z,11.60
2023-02-17T10:42:22.920Z,11.50
2023-02-17T10:43:55.985Z,11.60
2023-02-17T10:45:32.661Z,11.60
2023-02-17T10:47:06.110Z,11.60
2023-02-17T10:48:41.669Z,11.60
2023-02-17T10:50:20.401Z,11.60
2023-02-17T10:51:53.147Z,11.60
2023-02-17T10:53:29.848Z,11.60
2023-02-17T10:55:22.392Z,11.60
2023-02-17T10:56:57.596Z,11.60
2023-02-17T10:58:36.182Z,11.70
2023-02-17T11:00:15.821Z,11.70
2023-02-17T11:01:49.406Z,11.70
2023-02-17T11:03:22.685Z,11.70
2023-02-17T11:04:55.817Z,11.70
2023-02-17T11:06:28.914Z,11.70
2023-02-17T11:08:05.177Z,11.80
2023-02-17T11:09:45.756Z,11.80
2023-02-17T11:11:22.324Z,11.80
2023-02-17T11:12:58.009Z,11.80
2023-02-17T11:14:32.666Z,11.80
2023-02-17T11:16:06.731Z,11.80
2023-02-17T11:17:41.838Z,11.80
2023-02-17T11:19:24.041Z,11.80
2023-02-17T11:21:03.150Z,11.90
2023-02-17T11:22:40.597Z,11.90
2023-02-17T11:24:13.700Z,12.00
2023-02-17T11:25:57.968Z,12.00
2023-02-17T11:27:32.027Z,12.10
2023-02-17T11:29:09.729Z,12.20
2023-02-17T11:30:52.360Z,12.30
2023-02-17T11:32:32.364Z,12.40
2023-02-17T11:34:15.493Z,12.60
2023-02-17T11:35:52.198Z,12.70
2023-02-17T11:37:27.717Z,12.90
2023-02-17T11:39:00.830Z,12.90
2023-02-17T11:40:34.523Z,13.00
2023-02-17T11:42:16.018Z,13.10
2023-02-17T11:43:58.557Z,13.20
2023-02-17T11:45:40.739Z,13.30
2023-02-17T11:47:23.400Z,13.40
2023-02-17T11:49:06.009Z,13.40
2023-02-17T11:50:44.785Z,13.50
2023-02-17T11:52:36.864Z,13.60
2023-02-17T11:54:19.474Z,13.70
2023-02-17T11:56:06.322Z,13.80
2023-02-17T11:57:44.390Z,13.80
2023-02-17T11:59:30.993Z,13.80
2023-02-17T12:01:18.138Z,13.80
2023-02-17T12:03:36.926Z,13.80
2023-02-17T12:05:23.462Z,13.90
2023-02-17T12:07:19.142Z,13.90
2023-02-17T12:09:03.865Z,13.90
2023-02-17T12:10:48.465Z,13.90
2023-02-17T12:12:33.598Z,13.80
2023-02-17T12:14:20.698Z,13.80
2023-02-17T12:16:12.695Z,13.80
2023-02-17T12:17:55.040Z,13.80
2023-02-17T12:19:42.649Z,13.80
2023-02-17T12:21:24.368Z,13.80
2023-02-17T12:23:08.038Z,13.80
2023-02-17T12:24:54.404Z,13.80
2023-02-17T12:26:37.091Z,13.80
2023-02-17T12:28:39.730Z,13.70
2023-02-17T12:30:28.202Z,13.70
2023-02-17T12:32:15.312Z,13.70
2023-02-17T12:33:58.230Z,13.70
2023-02-17T12:35:41.654Z,13.60
2023-02-17T12:37:20.071Z,13.60
2023-02-17T12:38:58.119Z,13.60
2023-02-17T12:40:37.094Z,13.60
2023-02-17T12:42:14.989Z,13.50
2023-02-17T12:43:50.726Z,13.50
2023-02-17T12:45:28.368Z,13.50
2023-02-17T12:47:05.067Z,13.40
2023-02-17T12:48:44.057Z,13.40
2023-02-17T12:50:22.912Z,13.40
2023-02-17T12:51:58.361Z,13.40
2023-02-17T12:53:46.505Z,13.40
2023-02-17T12:55:22.732Z,13.30
2023-02-17T12:57:09.359Z,13.30
2023-02-17T12:58:42.881Z,13.30
2023-02-17T13:00:20.983Z,13.30
2023-02-17T13:02:01.569Z,13.30
2023-02-17T13:03:35.750Z,13.30
2023-02-17T13:05:23.146Z,13.30
2023-02-17T13:07:09.004Z,13.30
2023-02-17T13:08:45.515Z,13.30
2023-02-17T13:10:29.877Z,13.30
2023-02-17T13:12:19.616Z,13.30
2023-02-17T13:13:52.354Z,13.30
2023-02-17T13:15:38.210Z,13.30
2023-02-17T13:17:24.660Z,13.40
2023-02-17T13:19:08.458Z,13.40
2023-02-17T13:20:52.611Z,13.40
2023-02-17T13:22:25.282Z,13.40
2023-02-17T13:24:03.055Z,13.40
2023-02-17T13:25:37.897Z,13.50
2023-02-17T13:27:12.680Z,13.40
2023-02-17T13:28:46.259Z,13.40
2023-02-17T13:30:30.264Z,13.40
2023-02-17T13:32:05.064Z,13.40
2023-02-17T13:33:44.492Z,13.40
2023-02-17T13:35:32.848Z,13.40
2023-02-17T13:37:20.900Z,13.50
2023-02-17T13:39:01.184Z,13.50
2023-02-17T13:40:39.260Z,13.50
2023-02-17T13:42:33.413Z,13.50
2023-02-17T13:44:28.872Z,13.50
2023-02-17T13:46:04.522Z,13.50
2023-02-17T13:47:39.060Z,13.60
2023-02-17T13:49:23.015Z,13.60
2023-02-17T13:50:57.861Z,13.60
2023-02-17T13:52:32.985Z,13.60
2023-02-17T13:54:08.556Z,13.70
2023-02-17T13:55:41.793Z,13.60
2023-02-17T13:57:25.349Z,13.70
2023-02-17T13:59:09.101Z,13.70
2023-02-17T14:00:44.395Z,13.70
2023-02-17T14:02:35.202Z,13.70
2023-02-17T14:04:21.471Z,13.70
2023-02-17T14:05:55.847Z,13.70
2023-02-17T14:07:28.643Z,13.70
2023-02-17T14:09:12.994Z,13.70
2023-02-17T14:10:46.145Z,13.70
2023-02-17T14:12:24.398Z,13.70
2023-02-17T14:13:58.591Z,13.70
2023-02-17T14:15:32.902Z,13.70
2023-02-17T14:17:08.974Z,13.70
2023-02-17T14:18:42.777Z,13.70
2023-02-17T14:20:33.857Z,13.70
2023-02-17T14:22:07.367Z,13.80
2023-02-17T14:23:45.898Z,13.80
2023-02-17T14:25:29.112Z,13.70
2023-02-17T14:27:05.680Z,13.70
2023-02-17T14:28:38.592Z,13.70
2023-02-17T14:30:15.415Z,13.70
2023-02-17T14:31:51.159Z,13.70
2023-02-17T14:33:25.409Z,13.70
2023-02-17T14:35:09.023Z,13.70
2023-02-17T14:36:42.301Z,13.70
2023-02-17T14:38:22.189Z,13.70
2023-02-17T14:39:54.971Z,13.70
2023-02-17T14:41:29.915Z,13.70
2023-02-17T14:43:02.650Z,13.70
2023-02-17T14:44:35.589Z,13.70
2023-02-17T14:46:08.698Z,13.70
2023-02-17T14:47:41.774Z,13.70
2023-02-17T14:49:14.548Z,13.70
2023-02-17T14:50:47.549Z,13.70
2023-02-17T14:52:22.941Z,13.70
2023-02-17T14:53:55.795Z,13.60
2023-02-17T14:55:33.716Z,13.60
2023-02-17T14:57:13.505Z,13.70
2023-02-17T14:58:46.712Z,13.70
2023-02-17T15:00:20.336Z,13.70
2023-02-17T15:01:53.697Z,13.70
2023-02-17T15:03:26.910Z,13.70
2023-02-17T15:04:59.861Z,13.70
2023-02-17T15:06:39.240Z,13.70
2023-02-17T15:08:16.083Z,13.70
2023-02-17T15:09:50.150Z,13.70
2023-02-17T15:11:31.202Z,13.70
2023-02-17T15:13:05.382Z,13.70
2023-02-17T15:14:38.272Z,13.70
2023-02-17T15:16:11.236Z,13.70
2023-02-17T15:17:45.020Z,13.70
2023-02-17T15:19:18.116Z,13.70
2023-02-17T15:20:52.526Z,13.80
2023-02-17T15:22:25.417Z,13.70
2023-02-17T15:24:00.177Z,13.70
2023-02-17T15:25:34.780Z,13.70
2023-02-17T15:27:08.385Z,13.70
2023-02-17T15:28:42.460Z,13.70
2023-02-17T15:30:17.798Z,13.70
2023-02-17T15:31:52.602Z,13.70
2023-02-17T15:33:25.733Z,13.70
2023-02-17T15:34:59.098Z,13.80
2023-02-17T15:36:32.177Z,13.70
2023-02-17T15:38:04.862Z,13.70
2023-02-17T15:39:37.626Z,13.70
2023-02-17T15:41:17.178Z,13.60
2023-02-17T15:42:54.181Z,13.70
2023-02-17T15:44:36.005Z,13.60
2023-02-17T15:46:14.231Z,13.60
2023-02-17T15:47:47.613Z,13.60
2023-02-17T15:49:20.492Z,13.50
2023-02-17T15:50:54.079Z,13.50
2023-02-17T15:52:26.871Z,13.50
2023-02-17T15:53:59.658Z,13.50
2023-02-17T15:55:34.175Z,13.50
2023-02-17T15:57:09.074Z,13.50
2023-02-17T15:58:42.616Z,13.40
2023-02-17T16:00:24.514Z,13.50
2023-02-17T16:02:01.418Z,13.50
2023-02-17T16:03:34.806Z,13.50
2023-02-17T16:05:10.858Z,13.40
2023-02-17T16:06:44.556Z,13.40
2023-02-17T16:08:17.878Z,13.40
2023-02-17T16:09:50.865Z,13.30
2023-02-17T16:11:25.133Z,13.40
2023-02-17T16:13:01.161Z,13.30
2023-02-17T16:14:36.539Z,13.30
2023-02-17T16:16:17.346Z,13.30
2023-02-17T16:17:51.601Z,13.30
2023-02-17T16:19:24.814Z,13.30
2023-02-17T16:20:58.150Z,13.30
2023-02-17T16:22:31.390Z,13.30
2023-02-17T16:24:05.342Z,13.30
2023-02-17T16:25:38.486Z,13.30
2023-02-17T16:27:15.591Z,13.30
2023-02-17T16:28:48.732Z,13.30
2023-02-17T16:30:24.364Z,13.30
2023-02-17T16:31:59.311Z,13.20
2023-02-17T16:33:32.247Z,13.20
2023-02-17T16:35:05.526Z,13.20
2023-02-17T16:36:39.127Z,13.20
2023-02-17T16:38:17.052Z,13.20
2023-02-17T16:39:51.079Z,13.10
2023-02-17T16:41:23.857Z,13.10
2023-02-17T16:42:56.857Z,13.10
2023-02-17T16:44:29.571Z,13.10
2023-02-17T16:46:04.134Z,13.10
2023-02-17T16:47:38.254Z,13.10
2023-02-17T16:49:20.390Z,13.10
2023-02-17T16:50:53.644Z,13.10
2023-02-17T16:52:28.071Z,13.10
2023-02-17T16:54:00.860Z,13.10
2023-02-17T16:55:35.626Z,13.00
2023-02-17T16:57:15.941Z,13.00
2023-02-17T16:58:48.715Z,13.00
2023-02-17T17:00:24.629Z,13.00
2023-02-17T17:01:57.550Z,13.00
2023-02-17T17:03:31.596Z,13.00
2023-02-17T17:05:04.359Z,13.00
2023-02-17T17:06:38.646Z,13.00
2023-02-17T17:08:14.155Z,13.00
2023-02-17T17:10:07.000Z,12.90
2023-02-17T17:11:39.503Z,12.90
2023-02-17T17:13:13.113Z,12.80
2023-02-17T17:14:45.938Z,12.90
2023-02-17T17:16:22.256Z,12.90
2023-02-17T17:17:58.281Z,12.90
2023-02-17T17:19:32.295Z,12.90
2023-02-17T17:21:05.435Z,12.80
2023-02-17T17:22:38.334Z,12.80
2023-02-17T17:24:11.032Z,12.80
2023-02-17T17:25:46.588Z,12.80
2023-02-17T17:27:19.327Z,12.70
2023-02-17T17:28:52.299Z,12.80
2023-02-17T17:30:29.176Z,12.70
2023-02-17T17:32:02.072Z,12.70
2023-02-17T17:33:34.842Z,12.70
2023-02-17T17:35:09.411Z,12.70
2023-02-17T17:36:44.192Z,12.70
2023-02-17T17:38:16.996Z,12.60
2023-02-17T17:39:49.694Z,12.60
2023-02-17T17:41:23.205Z,12.60
2023-02-17T17:42:56.050Z,12.60
2023-02-17T17:44:28.760Z,12.60
2023-02-17T17:46:01.520Z,12.60
2023-02-17T17:47:34.229Z,12.60
2023-02-17T17:49:10.285Z,12.60
2023-02-17T17:50:44.970Z,12.60
2023-02-17T17:52:17.787Z,12.60
2023-02-17T17:53:51.107Z,12.60
2023-02-17T17:55:23.814Z,12.60
2023-02-17T17:56:56.547Z,12.60
2023-02-17T17:58:31.363Z,12.60
2023-02-17T18:00:06.832Z,12.60
2023-02-17T18:01:39.889Z,12.60
2023-02-17T18:03:12.601Z,12.60
2023-02-17T18:04:45.310Z,12.60
2023-02-17T18:06:23.897Z,12.60
2023-02-17T18:07:57.283Z,12.60
2023-02-17T18:09:33.199Z,12.60
2023-02-17T18:11:07.882Z,12.60
2023-02-17T18:12:42.777Z,12.60
2023-02-17T18:14:16.578Z,12.50
2023-02-17T18:15:49.459Z,12.60
2023-02-17T18:17:23.666Z,12.50
2023-02-17T18:18:58.652Z,12.60
2023-02-17T18:20:31.603Z,12.60
2023-02-17T18:22:05.688Z,12.60
2023-02-17T18:23:38.529Z,12.60
2023-02-17T18:25:11.796Z,12.50
2023-02-17T18:26:44.551Z,12.50
2023-02-17T18:28:17.254Z,12.60
2023-02-17T18:29:49.973Z,12.50
2023-02-17T18:31:22.940Z,12.50
2023-02-17T18:32:56.287Z,12.50
2023-02-17T18:34:29.020Z,12.50
2023-02-17T18:36:07.938Z,12.50
2023-02-17T18:37:42.399Z,12.50
2023-02-17T18:39:15.122Z,12.50
2023-02-17T18:40:48.210Z,12.50
2023-02-17T18:42:20.922Z,12.50
2023-02-17T18:43:54.209Z,12.50
2023-02-17T18:45:27.675Z,12.50
2023-02-17T18:47:00.361Z,12.50
2023-02-17T18:48:33.184Z,12.50
2023-02-17T18:50:07.467Z,12.50
2023-02-17T18:51:40.318Z,12.50
2023-02-17T18:53:15.682Z,12.50
2023-02-17T18:54:48.399Z,12.50
2023-02-17T18:56:24.109Z,12.50
2023-02-17T18:57:57.361Z,12.50
2023-02-17T18:59:30.058Z,12.50
2023-02-17T19:01:02.851Z,12.50
2023-02-17T19:02:37.026Z,12.50
2023-02-17T19:04:11.804Z,12.50
2023-02-17T19:05:44.497Z,12.50
2023-02-17T19:07:17.202Z,12.50
2023-02-17T19:08:52.548Z,12.50
2023-02-17T19:10:25.573Z,12.50
2023-02-17T19:11:58.328Z,12.50
2023-02-17T19:13:31.097Z,12.50
2023-02-17T19:15:03.947Z,12.50
2023-02-17T19:16:36.962Z,12.50
2023-02-17T19:18:09.883Z,12.50
2023-02-17T19:19:42.802Z,12.50
2023-02-17T19:21:16.254Z,12.50
2023-02-17T19:22:49.430Z,12.50
2023-02-17T19:24:23.913Z,12.40
2023-02-17T19:25:56.993Z,12.40
2023-02-17T19:27:30.062Z,12.40
2023-02-17T19:29:02.779Z,12.50
2023-02-17T19:30:35.918Z,12.40
2023-02-17T19:32:08.675Z,12.40
2023-02-17T19:33:41.561Z,12.40
2023-02-17T19:35:14.404Z,12.40
2023-02-17T19:36:47.389Z,12.40
2023-02-17T19:38:20.137Z,12.40
2023-02-17T19:39:54.870Z,12.40
2023-02-17T19:41:27.852Z,12.50
2023-02-17T19:43:01.140Z,12.50
2023-02-17T19:44:33.857Z,12.40
2023-02-17T19:46:07.039Z,12.40
2023-02-17T19:47:40.056Z,12.50
2023-02-17T19:49:12.777Z,12.40
2023-02-17T19:50:45.471Z,12.40
2023-02-17T19:52:19.604Z,12.40
2023-02-17T19:53:52.400Z,12.40
2023-02-17T19:55:26.606Z,12.40
2023-02-17T19:56:59.386Z,12.40
2023-02-17T19:58:32.096Z,12.40
2023-02-17T20:00:06.499Z,12.40
2023-02-17T20:01:41.078Z,12.40
2023-02-17T20:03:15.100Z,12.40
2023-02-17T20:04:47.832Z,12.40
2023-02-17T20:06:23.060Z,12.50
2023-02-17T20:07:57.142Z,12.40
2023-02-17T20:09:29.828Z,12.40
2023-02-17T20:11:07.893Z,12.40
2023-02-17T20:12:40.706Z,12.40
2023-02-17T20:14:14.021Z,12.40
2023-02-17T20:15:46.758Z,12.40
2023-02-17T20:17:19.493Z,12.50
2023-02-17T20:18:55.040Z,12.40
2023-02-17T20:20:27.850Z,12.40
2023-02-17T20:22:01.021Z,12.40
2023-02-17T20:23:34.118Z,12.40
2023-02-17T20:25:07.484Z,12.40
2023-02-17T20:26:44.183Z,12.40
2023-02-17T20:28:16.928Z,12.40
2023-02-17T20:29:49.627Z,12.40
2023-02-17T20:31:22.930Z,12.50
2023-02-17T20:32:55.708Z,12.40
2023-02-17T20:34:30.036Z,12.50
2023-02-17T20:36:02.769Z,12.40
2023-02-17T20:37:35.466Z,12.40
2023-02-17T20:39:08.165Z,12.40
2023-02-17T20:40:40.845Z,12.40
2023-02-17T20:42:14.858Z,12.50
2023-02-17T20:43:47.945Z,12.50
2023-02-17T20:45:20.669Z,12.40